createdAt,value
2016-06-19T00:00:22.839Z,58.57
2016-06-19T00:01:22.874Z,58.57
2016-06-19T00:02:22.862Z,58.57
2016-06-19T00:03:22.866Z,58.47
2016-06-19T00:04:22.884Z,58.57
2016-06-19T00:05:22.904Z,58.67
2016-06-19T00:06:22.907Z,58.54
2016-06-19T00:07:22.927Z,58.57
2016-06-19T00:08:22.945Z,58.54
2016-06-19T00:09:22.933Z,58.47
2016-06-19T00:10:22.969Z,58.57
2016-06-19T00:11:23.580Z,58.57
2016-06-19T00:12:22.991Z,58.47
2016-06-19T00:13:22.979Z,58.47
2016-06-19T00:14:23.623Z,58.45
2016-06-19T00:15:23.002Z,58.47
2016-06-19T00:16:23.020Z,58.47
2016-06-19T00:17:23.039Z,58.47
2016-06-19T00:18:23.027Z,58.54
2016-06-19T00:19:23.046Z,58.47
2016-06-19T00:20:23.050Z,58.37
2016-06-19T00:21:23.085Z,58.47
2016-06-19T00:22:23.088Z,58.57
2016-06-19T00:23:23.091Z,58.37
2016-06-19T00:24:23.110Z,58.47
2016-06-19T00:25:23.129Z,58.47
2016-06-19T00:26:23.133Z,58.37
2016-06-19T00:27:23.136Z,58.37
2016-06-19T00:28:23.156Z,58.67
2016-06-19T00:29:23.158Z,58.47
2016-06-19T00:30:23.178Z,58.47
2016-06-19T00:31:23.182Z,58.47
2016-06-19T00:32:23.200Z,58.47
2016-06-19T00:33:23.204Z,58.57
2016-06-19T00:34:23.223Z,58.47
2016-06-19T00:35:23.242Z,58.37
2016-06-19T00:36:23.245Z,58.57
2016-06-19T00:37:23.249Z,58.47
2016-06-19T00:38:23.268Z,58.47
2016-06-19T00:39:23.271Z,58.45
2016-06-19T00:40:23.275Z,58.47
2016-06-19T00:41:23.294Z,58.47
2016-06-19T00:42:23.298Z,58.47
2016-06-19T00:43:23.317Z,58.45
2016-06-19T00:44:23.336Z,58.47
2016-06-19T00:45:23.340Z,58.64
2016-06-19T00:46:23.343Z,58.47
2016-06-19T00:47:23.362Z,58.15
2016-06-19T00:48:23.380Z,58.45
2016-06-19T00:49:23.384Z,58.45
2016-06-19T00:50:23.404Z,58.28
2016-06-19T00:51:23.407Z,58.25
2016-06-19T00:52:23.426Z,58.28
2016-06-19T00:53:23.429Z,58.25
2016-06-19T00:54:23.432Z,58.25
2016-06-19T00:55:23.451Z,58.35
2016-06-19T00:56:23.471Z,58.25
2016-06-19T00:57:23.475Z,58.25
2016-06-19T00:58:23.493Z,58.37
2016-06-19T00:59:23.497Z,58.25
2016-06-19T01:00:23.516Z,58.15
2016-06-19T01:01:23.520Z,58.25
2016-06-19T01:02:23.539Z,58.25
2016-06-19T01:03:23.543Z,58.25
2016-06-19T01:04:23.561Z,58.25
2016-06-19T01:05:23.580Z,58.25
2016-06-19T01:06:23.568Z,58.25
2016-06-19T01:07:23.587Z,58.25
2016-06-19T01:08:23.590Z,58.25
2016-06-19T01:09:23.609Z,58.35
2016-06-19T01:10:23.612Z,58.25
2016-06-19T01:11:24.241Z,58.25
2016-06-19T01:12:23.652Z,58.35
2016-06-19T01:13:24.264Z,58.45
2016-06-19T01:14:23.659Z,58.25
2016-06-19T01:15:24.287Z,58.25
2016-06-19T01:16:23.681Z,58.35
2016-06-19T01:17:23.700Z,58.25
2016-06-19T01:18:23.704Z,58.25
2016-06-19T01:19:23.723Z,58.45
2016-06-19T01:20:24.351Z,58.35
2016-06-19T01:21:23.745Z,58.35
2016-06-19T01:22:23.764Z,58.25
2016-06-19T01:23:23.767Z,58.45
2016-06-19T01:24:23.771Z,58.35
2016-06-19T01:25:23.790Z,58.15
2016-06-19T01:26:23.809Z,58.15
2016-06-19T01:27:23.813Z,58.25
2016-06-19T01:28:23.816Z,58.25
2016-06-19T01:29:23.819Z,58.35
2016-06-19T01:30:23.839Z,58.25
2016-06-19T01:31:23.843Z,58.45
2016-06-19T01:32:23.861Z,58.45
2016-06-19T01:33:23.880Z,58.25
2016-06-19T01:34:23.868Z,58.45
2016-06-19T01:35:23.903Z,58.35
2016-06-19T01:36:23.907Z,58.45
2016-06-19T01:37:23.925Z,58.25
2016-06-19T01:38:23.928Z,58.45
2016-06-19T01:39:23.948Z,58.35
2016-06-19T01:40:24.577Z,58.45
2016-06-19T01:41:23.970Z,58.25
2016-06-19T01:42:23.973Z,58.25
2016-06-19T01:43:23.977Z,58.35
2016-06-19T01:44:23.980Z,58.15
2016-06-19T01:45:24.000Z,58.25
2016-06-19T01:46:24.019Z,58.25
2016-06-19T01:47:24.037Z,58.35
2016-06-19T01:48:24.041Z,58.35
2016-06-19T01:49:24.045Z,58.45
2016-06-19T01:50:24.673Z,58.25
2016-06-19T01:51:24.098Z,58.45
2016-06-19T01:52:24.087Z,58.25
2016-06-19T01:53:24.091Z,58.45
2016-06-19T01:54:24.140Z,58.45
2016-06-19T01:55:24.132Z,58.25
2016-06-19T01:56:24.140Z,58.35
2016-06-19T01:57:24.147Z,58.54
2016-06-19T01:58:24.169Z,58.35
2016-06-19T01:59:24.175Z,58.25
2016-06-19T02:00:24.196Z,58.25
2016-06-19T02:01:24.201Z,58.45
2016-06-19T02:02:24.221Z,58.35
2016-06-19T02:03:24.227Z,58.35
2016-06-19T02:04:24.262Z,58.35
2016-06-19T02:05:24.250Z,58.25
2016-06-19T02:06:24.301Z,58.35
2016-06-19T02:07:24.274Z,58.25
2016-06-19T02:08:24.278Z,58.35
2016-06-19T02:09:24.298Z,58.45
2016-06-19T02:10:24.316Z,58.45
2016-06-19T02:11:25.242Z,58.35
2016-06-19T02:12:24.339Z,58.35
2016-06-19T02:13:24.342Z,58.45
2016-06-19T02:14:24.377Z,58.25
2016-06-19T02:15:24.365Z,58.25
2016-06-19T02:16:24.367Z,58.25
2016-06-19T02:17:24.387Z,58.54
2016-06-19T02:18:24.391Z,58.45
2016-06-19T02:19:24.411Z,58.54
2016-06-19T02:20:24.413Z,58.45
2016-06-19T02:21:24.432Z,58.15
2016-06-19T02:22:24.436Z,58.15
2016-06-19T02:23:24.455Z,58.54
2016-06-19T02:24:24.474Z,58.06
2016-06-19T02:25:24.478Z,58.54
2016-06-19T02:26:24.497Z,58.54
2016-06-19T02:27:24.500Z,58.45
2016-06-19T02:28:24.519Z,58.25
2016-06-19T02:29:24.523Z,58.45
2016-06-19T02:30:24.541Z,58.15
2016-06-19T02:31:24.545Z,58.45
2016-06-19T02:32:24.548Z,58.45
2016-06-19T02:33:24.568Z,58.15
2016-06-19T02:34:24.571Z,58.54
2016-06-19T02:35:24.575Z,58.54
2016-06-19T02:36:24.594Z,58.35
2016-06-19T02:37:24.612Z,58.25
2016-06-19T02:38:24.616Z,58.45
2016-06-19T02:39:24.635Z,58.45
2016-06-19T02:40:24.638Z,58.35
2016-06-19T02:41:24.658Z,58.45
2016-06-19T02:42:24.662Z,58.35
2016-06-19T02:43:24.680Z,58.25
2016-06-19T02:44:24.684Z,58.35
2016-06-19T02:45:24.703Z,58.35
2016-06-19T02:46:24.721Z,58.35
2016-06-19T02:47:25.022Z,58.45
2016-06-19T02:48:24.729Z,58.54
2016-06-19T02:49:24.747Z,58.64
2016-06-19T02:50:24.751Z,58.45
2016-06-19T02:51:24.771Z,58.64
2016-06-19T02:52:25.025Z,58.35
2016-06-19T02:53:24.792Z,58.45
2016-06-19T02:54:24.796Z,58.54
2016-06-19T02:55:24.816Z,58.73
2016-06-19T02:56:24.819Z,58.25
2016-06-19T02:57:24.838Z,58.45
2016-06-19T02:58:25.045Z,58.64
2016-06-19T02:59:24.846Z,58.45
2016-06-19T03:00:24.849Z,58.64
2016-06-19T03:01:25.086Z,58.64
2016-06-19T03:02:24.887Z,58.64
2016-06-19T03:03:24.890Z,58.64
2016-06-19T03:04:24.894Z,58.73
2016-06-19T03:05:25.116Z,58.64
2016-06-19T03:06:25.135Z,58.64
2016-06-19T03:07:24.935Z,58.64
2016-06-19T03:08:24.955Z,58.73
2016-06-19T03:09:25.583Z,58.64
2016-06-19T03:10:24.976Z,58.64
2016-06-19T03:11:24.980Z,58.83
2016-06-19T03:12:25.311Z,58.73
2016-06-19T03:13:25.003Z,58.64
2016-06-19T03:14:25.132Z,58.73
2016-06-19T03:15:25.041Z,58.64
2016-06-19T03:16:25.247Z,58.64
2016-06-19T03:17:25.064Z,58.54
2016-06-19T03:18:25.427Z,58.64
2016-06-19T03:19:25.070Z,58.54
2016-06-19T03:20:25.074Z,58.54
2016-06-19T03:21:25.093Z,58.73
2016-06-19T03:22:25.112Z,58.64
2016-06-19T03:23:25.724Z,58.45
2016-06-19T03:24:25.385Z,58.64
2016-06-19T03:25:25.998Z,58.64
2016-06-19T03:26:26.017Z,58.64
2016-06-19T03:27:25.785Z,58.54
2016-06-19T03:28:25.180Z,58.73
2016-06-19T03:29:25.183Z,58.64
2016-06-19T03:30:25.203Z,58.45
2016-06-19T03:31:25.471Z,58.64
2016-06-19T03:32:25.521Z,58.64
2016-06-19T03:33:25.853Z,58.64
2016-06-19T03:34:25.248Z,58.54
2016-06-19T03:35:25.345Z,58.64
2016-06-19T03:36:25.254Z,58.64
2016-06-19T03:37:25.289Z,58.73
2016-06-19T03:38:25.276Z,58.54
2016-06-19T03:39:25.296Z,58.73
2016-06-19T03:40:25.658Z,58.73
2016-06-19T03:41:25.334Z,58.73
2016-06-19T03:42:25.322Z,58.64
2016-06-19T03:43:25.404Z,58.73
2016-06-19T03:44:25.360Z,58.83
2016-06-19T03:45:25.363Z,58.54
2016-06-19T03:46:25.367Z,58.73
2016-06-19T03:47:25.480Z,58.83
2016-06-19T03:48:25.389Z,58.64
2016-06-19T03:49:25.659Z,58.45
2016-06-19T03:50:25.568Z,58.64
2016-06-19T03:51:25.431Z,58.64
2016-06-19T03:52:25.574Z,58.64
2016-06-19T03:53:25.454Z,58.64
2016-06-19T03:54:25.629Z,58.64
2016-06-19T03:55:25.476Z,58.64
2016-06-19T03:56:25.496Z,58.64
2016-06-19T03:57:25.686Z,58.54
2016-06-19T03:58:25.565Z,58.73
2016-06-19T03:59:25.506Z,58.83
2016-06-19T04:00:25.525Z,58.73
2016-06-19T04:01:25.638Z,58.54
2016-06-19T04:02:25.797Z,58.64
2016-06-19T04:03:25.551Z,58.73
2016-06-19T04:04:25.570Z,58.64
2016-06-19T04:05:25.683Z,58.54
2016-06-19T04:06:25.639Z,58.64
2016-06-19T04:07:25.612Z,58.64
2016-06-19T04:08:25.615Z,58.64
2016-06-19T04:09:25.619Z,58.54
2016-06-19T04:10:25.653Z,58.64
2016-06-19T04:11:25.657Z,58.64
2016-06-19T04:12:25.678Z,58.54
2016-06-19T04:13:25.668Z,58.73
2016-06-19T04:14:25.891Z,58.64
2016-06-19T04:15:25.693Z,58.73
2016-06-19T04:16:25.713Z,58.64
2016-06-19T04:17:25.733Z,58.73
2016-06-19T04:18:26.379Z,58.73
2016-06-19T04:19:26.007Z,58.64
2016-06-19T04:20:25.777Z,58.64
2016-06-19T04:21:26.109Z,58.54
2016-06-19T04:22:25.784Z,58.64
2016-06-19T04:23:25.897Z,58.64
2016-06-19T04:24:26.010Z,58.64
2016-06-19T04:25:25.842Z,58.64
2016-06-19T04:26:26.173Z,58.83
2016-06-19T04:27:25.832Z,58.54
2016-06-19T04:28:25.836Z,58.64
2016-06-19T04:29:25.871Z,58.73
2016-06-19T04:30:25.859Z,58.73
2016-06-19T04:31:25.878Z,58.73
2016-06-19T04:32:25.896Z,58.73
2016-06-19T04:33:25.994Z,58.54
2016-06-19T04:34:26.029Z,58.64
2016-06-19T04:35:25.923Z,58.73
2016-06-19T04:36:26.145Z,58.64
2016-06-19T04:37:26.555Z,58.64
2016-06-19T04:38:25.981Z,58.64
2016-06-19T04:39:25.967Z,58.64
2016-06-19T04:40:25.987Z,58.45
2016-06-19T04:41:25.991Z,58.64
2016-06-19T04:42:26.009Z,58.54
2016-06-19T04:43:26.107Z,58.64
2016-06-19T04:44:26.033Z,58.45
2016-06-19T04:45:26.035Z,58.54
2016-06-19T04:46:26.055Z,58.64
2016-06-19T04:47:26.059Z,58.64
2016-06-19T04:48:26.062Z,58.54
2016-06-19T04:49:26.080Z,58.64
2016-06-19T04:50:26.100Z,58.54
2016-06-19T04:51:26.103Z,58.64
2016-06-19T04:52:26.154Z,58.64
2016-06-19T04:53:26.126Z,58.45
2016-06-19T04:54:26.129Z,58.54
2016-06-19T04:55:26.148Z,58.73
2016-06-19T04:56:26.152Z,58.45
2016-06-19T04:57:26.171Z,58.25
2016-06-19T04:58:26.174Z,58.83
2016-06-19T04:59:26.803Z,58.35
2016-06-19T05:00:26.196Z,58.45
2016-06-19T05:01:26.216Z,58.25
2016-06-19T05:02:26.220Z,58.45
2016-06-19T05:03:26.239Z,58.54
2016-06-19T05:04:26.242Z,58.15
2016-06-19T05:05:26.261Z,58.54
2016-06-19T05:06:26.264Z,58.25
2016-06-19T05:07:26.268Z,58.25
2016-06-19T05:08:26.287Z,58.25
2016-06-19T05:09:26.306Z,58.15
2016-06-19T05:10:26.310Z,58.54
2016-06-19T05:11:26.329Z,58.45
2016-06-19T05:12:26.332Z,58.25
2016-06-19T05:13:26.335Z,58.25
2016-06-19T05:14:26.355Z,58.45
2016-06-19T05:15:26.358Z,58.25
2016-06-19T05:16:26.362Z,58.45
2016-06-19T05:17:26.412Z,58.45
2016-06-19T05:18:26.384Z,58.25
2016-06-19T05:19:26.403Z,58.35
2016-06-19T05:20:26.422Z,58.45
2016-06-19T05:21:26.441Z,58.54
2016-06-19T05:22:27.055Z,58.45
2016-06-19T05:23:26.448Z,58.25
2016-06-19T05:24:26.468Z,58.25
2016-06-19T05:25:26.471Z,58.45
2016-06-19T05:26:26.490Z,58.45
2016-06-19T05:27:26.509Z,58.35
2016-06-19T05:28:26.512Z,58.35
2016-06-19T05:29:26.516Z,58.45
2016-06-19T05:30:26.519Z,58.45
2016-06-19T05:31:26.538Z,58.25
2016-06-19T05:32:26.543Z,58.45
2016-06-19T05:33:26.560Z,58.25
2016-06-19T05:34:26.580Z,58.54
2016-06-19T05:35:26.600Z,58.45
2016-06-19T05:36:26.587Z,58.45
2016-06-19T05:37:26.622Z,58.25
2016-06-19T05:38:26.609Z,58.25
2016-06-19T05:39:26.628Z,58.25
2016-06-19T05:40:26.632Z,58.25
2016-06-19T05:41:26.668Z,58.25
2016-06-19T05:42:26.670Z,58.25
2016-06-19T05:43:26.675Z,58.25
2016-06-19T05:44:26.692Z,58.25
2016-06-19T05:45:27.306Z,58.25
2016-06-19T05:46:26.730Z,58.35
2016-06-19T05:47:26.719Z,58.15
2016-06-19T05:48:26.738Z,58.35
2016-06-19T05:49:27.350Z,58.25
2016-06-19T05:50:26.744Z,58.25
2016-06-19T05:51:26.764Z,58.45
2016-06-19T05:52:26.768Z,58.45
2016-06-19T05:53:26.786Z,58.35
2016-06-19T05:54:26.791Z,58.25
2016-06-19T05:55:26.808Z,58.45
2016-06-19T05:56:26.812Z,58.45
2016-06-19T05:57:26.832Z,58.35
2016-06-19T05:58:26.851Z,58.45
2016-06-19T05:59:26.855Z,58.45
2016-06-19T06:00:26.857Z,58.25
2016-06-19T06:01:26.876Z,58.35
2016-06-19T06:02:26.880Z,58.25
2016-06-19T06:03:26.899Z,58.25
2016-06-19T06:04:26.964Z,58.35
2016-06-19T06:05:26.906Z,58.25
2016-06-19T06:06:26.924Z,58.35
2016-06-19T06:07:26.944Z,58.25
2016-06-19T06:08:26.964Z,58.35
2016-06-19T06:09:26.967Z,58.45
2016-06-19T06:10:26.985Z,58.45
2016-06-19T06:11:26.989Z,58.35
2016-06-19T06:12:27.009Z,58.25
2016-06-19T06:13:26.996Z,58.45
2016-06-19T06:14:27.032Z,58.45
2016-06-19T06:15:27.019Z,58.35
2016-06-19T06:16:27.038Z,58.45
2016-06-19T06:17:27.042Z,58.25
2016-06-19T06:18:27.060Z,58.25
2016-06-19T06:19:27.063Z,58.35
2016-06-19T06:20:27.083Z,58.25
2016-06-19T06:21:27.101Z,58.45
2016-06-19T06:22:27.715Z,58.45
2016-06-19T06:23:27.421Z,58.45
2016-06-19T06:24:27.144Z,58.45
2016-06-19T06:25:27.195Z,58.45
2016-06-19T06:26:27.150Z,58.35
2016-06-19T06:27:27.154Z,58.54
2016-06-19T06:28:27.179Z,58.45
2016-06-19T06:29:27.438Z,58.54
2016-06-19T06:30:27.214Z,58.35
2016-06-19T06:31:27.239Z,58.54
2016-06-19T06:32:27.262Z,58.45
2016-06-19T06:33:27.456Z,58.54
2016-06-19T06:34:27.274Z,58.54
2016-06-19T06:35:27.296Z,58.45
2016-06-19T06:36:27.302Z,58.54
2016-06-19T06:37:27.572Z,58.54
2016-06-19T06:38:27.326Z,58.54
2016-06-19T06:39:28.066Z,58.54
2016-06-19T06:40:27.351Z,58.54
2016-06-19T06:41:27.355Z,58.54
2016-06-19T06:42:27.376Z,58.54
2016-06-19T06:43:27.628Z,58.54
2016-06-19T06:44:27.397Z,58.45
2016-06-19T06:45:27.400Z,58.54
2016-06-19T06:46:27.452Z,58.54
2016-06-19T06:47:27.424Z,58.54
2016-06-19T06:48:27.443Z,58.64
2016-06-19T06:49:27.447Z,58.64
2016-06-19T06:50:27.450Z,58.54
2016-06-19T06:51:27.578Z,58.83
2016-06-19T06:52:27.488Z,58.73
2016-06-19T06:53:28.100Z,58.83
2016-06-19T06:54:27.510Z,58.25
2016-06-19T06:55:27.513Z,58.06
2016-06-19T06:56:28.142Z,58.25
2016-06-19T06:57:27.536Z,58.35
2016-06-19T06:58:27.540Z,57.96
2016-06-19T06:59:27.824Z,57.99
2016-06-19T07:00:27.563Z,58.35
2016-06-19T07:01:27.566Z,58.15
2016-06-19T07:02:27.584Z,58.35
2016-06-19T07:03:27.604Z,58.47
2016-06-19T07:04:27.732Z,58.35
2016-06-19T07:05:27.627Z,58.35
2016-06-19T07:06:27.645Z,58.35
2016-06-19T07:07:27.649Z,58.35
2016-06-19T07:08:27.669Z,58.25
2016-06-19T07:09:27.671Z,58.35
2016-06-19T07:10:27.690Z,58.25
2016-06-19T07:11:28.600Z,58.45
2016-06-19T07:12:27.760Z,58.73
2016-06-19T07:13:27.701Z,58.64
2016-06-19T07:14:27.892Z,58.54
2016-06-19T07:15:27.739Z,58.54
2016-06-19T07:16:27.742Z,58.54
2016-06-19T07:17:27.996Z,58.54
2016-06-19T07:18:28.578Z,58.54
2016-06-19T07:19:27.800Z,58.54
2016-06-19T07:20:27.882Z,58.64
2016-06-19T07:21:27.808Z,58.54
2016-06-19T07:22:27.856Z,58.64
2016-06-19T07:23:27.829Z,58.35
2016-06-19T07:24:27.817Z,58.35
2016-06-19T07:25:27.852Z,58.73
2016-06-19T07:26:28.105Z,58.54
2016-06-19T07:27:27.874Z,58.45
2016-06-19T07:28:27.878Z,58.45
2016-06-19T07:29:28.146Z,58.35
2016-06-19T07:30:27.900Z,58.35
2016-06-19T07:31:27.920Z,58.35
2016-06-19T07:32:28.173Z,58.35
2016-06-19T07:33:27.958Z,58.37
2016-06-19T07:34:27.945Z,58.35
2016-06-19T07:35:27.949Z,58.67
2016-06-19T07:36:28.265Z,58.06
2016-06-19T07:37:27.971Z,58.35
2016-06-19T07:38:27.991Z,58.35
2016-06-19T07:39:28.150Z,58.25
2016-06-19T07:40:28.263Z,58.45
2016-06-19T07:41:28.063Z,58.18
2016-06-19T07:42:28.036Z,58.45
2016-06-19T07:43:28.101Z,58.28
2016-06-19T07:44:28.042Z,57.87
2016-06-19T07:45:28.077Z,58.15
2016-06-19T07:46:28.175Z,58.35
2016-06-19T07:47:28.084Z,58.35
2016-06-19T07:48:29.057Z,58.25
2016-06-19T07:49:28.107Z,58.45
2016-06-19T07:50:28.313Z,58.06
2016-06-19T07:51:28.128Z,58.76
2016-06-19T07:52:28.445Z,58.45
2016-06-19T07:53:28.761Z,58.54
2016-06-19T07:54:28.171Z,58.57
2016-06-19T07:55:28.175Z,58.28
2016-06-19T07:56:28.193Z,58.45
2016-06-19T07:57:28.822Z,58.15
2016-06-19T07:58:28.216Z,58.28
2016-06-19T07:59:28.220Z,58.73
2016-06-19T08:00:28.223Z,58.73
2016-06-19T08:01:28.241Z,58.28
2016-06-19T08:02:28.245Z,58.18
2016-06-19T08:03:28.264Z,58.18
2016-06-19T08:04:28.268Z,57.99
2016-06-19T08:05:28.287Z,58.25
2016-06-19T08:06:28.306Z,58.06
2016-06-19T08:07:28.310Z,58.18
2016-06-19T08:08:28.328Z,57.99
2016-06-19T08:09:28.333Z,58.09
2016-06-19T08:10:28.351Z,58.09
2016-06-19T08:11:28.355Z,58.18
2016-06-19T08:12:28.358Z,58.18
2016-06-19T08:13:28.377Z,58.18
2016-06-19T08:14:28.381Z,58.18
2016-06-19T08:15:29.009Z,58.18
2016-06-19T08:16:28.435Z,58.18
2016-06-19T08:17:28.843Z,58.09
2016-06-19T08:18:28.441Z,58.28
2016-06-19T08:19:28.445Z,58.09
2016-06-19T08:20:28.464Z,58.15
2016-06-19T08:21:28.468Z,58.18
2016-06-19T08:22:28.486Z,58.15
2016-06-19T08:23:28.537Z,58.18
2016-06-19T08:24:28.493Z,58.18
2016-06-19T08:25:28.496Z,58.18
2016-06-19T08:26:28.516Z,58.18
2016-06-19T08:27:28.535Z,58.18
2016-06-19T08:28:28.539Z,58.18
2016-06-19T08:29:28.542Z,58.18
2016-06-19T08:30:28.561Z,58.09
2016-06-19T08:31:28.564Z,58.18
2016-06-19T08:32:28.584Z,58.18
2016-06-19T08:33:28.602Z,58.18
2016-06-19T08:34:28.622Z,58.37
2016-06-19T08:35:28.609Z,58.09
2016-06-19T08:36:28.628Z,58.18
2016-06-19T08:37:28.648Z,58.18
2016-06-19T08:38:28.651Z,58.28
2016-06-19T08:39:28.670Z,58.09
2016-06-19T08:40:28.674Z,58.28
2016-06-19T08:41:28.693Z,58.18
2016-06-19T08:42:28.696Z,58.18
2016-06-19T08:43:28.715Z,58.09
2016-06-19T08:44:29.346Z,58.28
2016-06-19T08:45:28.743Z,58.15
2016-06-19T08:46:28.749Z,58.28
2016-06-19T08:47:28.771Z,58.18
2016-06-19T08:48:28.777Z,58.28
2016-06-19T08:49:28.797Z,58.18
2016-06-19T08:50:28.801Z,58.18
2016-06-19T08:51:28.806Z,58.28
2016-06-19T08:52:28.826Z,58.18
2016-06-19T08:53:28.847Z,58.18
2016-06-19T08:54:28.851Z,58.18
2016-06-19T08:55:28.855Z,58.28
2016-06-19T08:56:28.874Z,58.28
2016-06-19T08:57:28.893Z,58.18
2016-06-19T08:58:28.898Z,58.28
2016-06-19T08:59:28.917Z,58.28
2016-06-19T09:00:28.905Z,58.18
2016-06-19T09:01:28.939Z,58.28
2016-06-19T09:02:28.928Z,58.37
2016-06-19T09:03:29.571Z,58.28
2016-06-19T09:04:29.574Z,58.28
2016-06-19T09:05:29.594Z,58.18
2016-06-19T09:06:28.987Z,57.79
2016-06-19T09:07:29.007Z,57.79
2016-06-19T09:08:29.010Z,58.37
2016-06-19T09:09:29.030Z,57.79
2016-06-19T09:10:29.033Z,58.37
2016-06-19T09:11:29.036Z,58.37
2016-06-19T09:12:29.040Z,58.18
2016-06-19T09:13:29.074Z,58.37
2016-06-19T09:14:29.062Z,58.28
2016-06-19T09:15:29.081Z,58.37
2016-06-19T09:16:29.085Z,58.28
2016-06-19T09:17:29.105Z,58.28
2016-06-19T09:18:29.108Z,58.28
2016-06-19T09:19:29.143Z,58.37
2016-06-19T09:20:29.146Z,58.28
2016-06-19T09:21:29.165Z,58.37
2016-06-19T09:22:29.167Z,58.28
2016-06-19T09:23:29.171Z,58.09
2016-06-19T09:24:29.190Z,58.18
2016-06-19T09:25:29.194Z,58.09
2016-06-19T09:26:29.214Z,58.18
2016-06-19T09:27:29.217Z,57.79
2016-06-19T09:28:29.236Z,57.99
2016-06-19T09:29:29.238Z,57.99
2016-06-19T09:30:29.258Z,57.7
2016-06-19T09:31:29.293Z,57.99
2016-06-19T09:32:29.282Z,57.79
2016-06-19T09:33:29.285Z,57.89
2016-06-19T09:34:29.304Z,57.79
2016-06-19T09:35:29.306Z,57.99
2016-06-19T09:36:29.326Z,57.99
2016-06-19T09:37:29.329Z,57.99
2016-06-19T09:38:29.348Z,57.99
2016-06-19T09:39:29.352Z,57.79
2016-06-19T09:40:29.964Z,57.99
2016-06-19T09:41:29.374Z,57.99
2016-06-19T09:42:29.378Z,57.89
2016-06-19T09:43:29.397Z,57.99
2016-06-19T09:44:29.416Z,57.79
2016-06-19T09:45:29.419Z,57.99
2016-06-19T09:46:29.439Z,57.89
2016-06-19T09:47:29.458Z,57.89
2016-06-19T09:48:29.476Z,57.79
2016-06-19T09:49:29.465Z,57.89
2016-06-19T09:50:29.483Z,57.99
2016-06-19T09:51:29.487Z,57.99
2016-06-19T09:52:29.507Z,57.79
2016-06-19T09:53:29.525Z,57.79
2016-06-19T09:54:29.528Z,57.79
2016-06-19T09:55:29.532Z,57.79
2016-06-19T09:56:29.551Z,57.89
2016-06-19T09:57:29.555Z,57.99
2016-06-19T09:58:29.574Z,57.79
2016-06-19T09:59:29.578Z,57.79
2016-06-19T10:00:29.581Z,57.99
2016-06-19T10:01:29.599Z,57.79
2016-06-19T10:02:29.603Z,57.89
2016-06-19T10:03:29.623Z,57.79
2016-06-19T10:04:29.626Z,57.79
2016-06-19T10:05:29.645Z,57.79
2016-06-19T10:06:29.649Z,57.99
2016-06-19T10:07:29.667Z,57.99
2016-06-19T10:08:29.687Z,57.99
2016-06-19T10:09:29.674Z,57.99
2016-06-19T10:10:29.709Z,57.79
2016-06-19T10:11:29.712Z,57.89
2016-06-19T10:12:29.731Z,57.79
2016-06-19T10:13:29.735Z,57.89
2016-06-19T10:14:29.754Z,57.79
2016-06-19T10:15:29.758Z,57.79
2016-06-19T10:16:29.761Z,57.99
2016-06-19T10:17:29.780Z,57.99
2016-06-19T10:18:29.783Z,57.99
2016-06-19T10:19:29.803Z,57.99
2016-06-19T10:20:29.806Z,57.89
2016-06-19T10:21:29.826Z,58.09
2016-06-19T10:22:29.844Z,57.99
2016-06-19T10:23:29.833Z,57.99
2016-06-19T10:24:29.867Z,57.99
2016-06-19T10:25:29.870Z,57.89
2016-06-19T10:26:29.874Z,57.89
2016-06-19T10:27:29.892Z,57.89
2016-06-19T10:28:29.928Z,58.09
2016-06-19T10:29:29.915Z,57.99
2016-06-19T10:30:29.919Z,57.79
2016-06-19T10:31:29.939Z,57.79
2016-06-19T10:32:29.942Z,57.79
2016-06-19T10:33:29.946Z,57.79
2016-06-19T10:34:29.964Z,57.73
2016-06-19T10:35:29.967Z,57.89
2016-06-19T10:36:30.003Z,57.7
2016-06-19T10:37:29.990Z,57.7
2016-06-19T10:38:30.009Z,57.79
2016-06-19T10:39:30.013Z,57.6
2016-06-19T10:40:30.047Z,57.7
2016-06-19T10:41:30.051Z,57.51
2016-06-19T10:42:30.070Z,57.79
2016-06-19T10:43:30.073Z,57.89
2016-06-19T10:44:30.077Z,57.89
2016-06-19T10:45:30.079Z,57.7
2016-06-19T10:46:30.099Z,57.79
2016-06-19T10:47:30.118Z,57.7
2016-06-19T10:48:30.122Z,57.7
2016-06-19T10:49:30.141Z,57.7
2016-06-19T10:50:30.144Z,57.79
2016-06-19T10:51:30.164Z,57.51
2016-06-19T10:52:30.166Z,57.6
2016-06-19T10:53:30.187Z,57.51
2016-06-19T10:54:30.190Z,57.6
2016-06-19T10:55:30.193Z,57.7
2016-06-19T10:56:30.211Z,57.7
2016-06-19T10:57:30.215Z,57.7
2016-06-19T10:58:30.235Z,57.7
2016-06-19T10:59:30.238Z,57.51
2016-06-19T11:00:30.257Z,57.79
2016-06-19T11:01:30.262Z,57.51
2016-06-19T11:02:30.299Z,57.7
2016-06-19T11:03:30.304Z,57.7
2016-06-19T11:04:30.324Z,57.7
2016-06-19T11:05:30.328Z,57.7
2016-06-19T11:06:30.332Z,57.7
2016-06-19T11:07:30.352Z,57.7
2016-06-19T11:08:30.356Z,57.54
2016-06-19T11:09:30.376Z,57.73
2016-06-19T11:10:30.364Z,57.79
2016-06-19T11:11:30.399Z,57.7
2016-06-19T11:12:30.403Z,57.6
2016-06-19T11:13:30.422Z,57.63
2016-06-19T11:14:30.427Z,57.6
2016-06-19T11:15:30.445Z,57.51
2016-06-19T11:16:30.448Z,57.6
2016-06-19T11:17:30.468Z,57.51
2016-06-19T11:18:30.471Z,57.7
2016-06-19T11:19:30.475Z,57.6
2016-06-19T11:20:30.494Z,57.7
2016-06-19T11:21:30.513Z,57.44
2016-06-19T11:22:30.501Z,57.6
2016-06-19T11:23:30.520Z,57.6
2016-06-19T11:24:30.523Z,57.41
2016-06-19T11:25:30.558Z,57.51
2016-06-19T11:26:30.546Z,57.7
2016-06-19T11:27:30.581Z,57.73
2016-06-19T11:28:30.584Z,57.41
2016-06-19T11:29:31.212Z,57.41
2016-06-19T11:30:30.607Z,57.51
2016-06-19T11:31:30.625Z,57.51
2016-06-19T11:32:30.629Z,57.54
2016-06-19T11:33:30.632Z,57.82
2016-06-19T11:34:30.651Z,57.54
2016-06-19T11:35:30.655Z,57.54
2016-06-19T11:36:30.674Z,57.6
2016-06-19T11:37:31.303Z,57.73
2016-06-19T11:38:30.696Z,57.63
2016-06-19T11:39:30.716Z,57.54
2016-06-19T11:40:30.719Z,57.54
2016-06-19T11:41:30.738Z,57.51
2016-06-19T11:42:30.743Z,57.51
2016-06-19T11:43:30.746Z,57.54
2016-06-19T11:44:30.764Z,57.54
2016-06-19T11:45:30.768Z,57.51
2016-06-19T11:46:30.787Z,57.6
2016-06-19T11:47:30.791Z,57.44
2016-06-19T11:48:30.809Z,57.54
2016-06-19T11:49:30.812Z,57.51
2016-06-19T11:50:30.832Z,57.41
2016-06-19T11:51:30.835Z,57.54
2016-06-19T11:52:30.854Z,57.6
2016-06-19T11:53:30.859Z,57.54
2016-06-19T11:54:30.893Z,57.51
2016-06-19T11:55:31.506Z,57.6
2016-06-19T11:56:30.916Z,57.51
2016-06-19T11:57:30.904Z,57.51
2016-06-19T11:58:31.562Z,57.51
2016-06-19T11:59:30.926Z,57.54
2016-06-19T12:00:30.945Z,57.51
2016-06-19T12:01:30.964Z,57.51
2016-06-19T12:02:31.576Z,57.41
2016-06-19T12:03:30.986Z,57.6
2016-06-19T12:04:30.990Z,57.41
2016-06-19T12:05:31.009Z,57.41
2016-06-19T12:06:31.012Z,57.54
2016-06-19T12:07:31.032Z,57.31
2016-06-19T12:08:31.036Z,57.54
2016-06-19T12:09:31.038Z,57.51
2016-06-19T12:10:31.057Z,57.51
2016-06-19T12:11:31.060Z,57.31
2016-06-19T12:12:31.065Z,57.54
2016-06-19T12:13:31.084Z,57.34
2016-06-19T12:14:31.103Z,57.34
2016-06-19T12:15:31.121Z,57.41
2016-06-19T12:16:31.125Z,57.54
2016-06-19T12:17:31.128Z,57.31
2016-06-19T12:18:31.148Z,57.34
2016-06-19T12:19:31.166Z,57.31
2016-06-19T12:20:31.170Z,57.6
2016-06-19T12:21:31.815Z,57.6
2016-06-19T12:22:31.192Z,57.41
2016-06-19T12:23:31.196Z,57.51
2016-06-19T12:24:31.200Z,57.15
2016-06-19T12:25:31.219Z,57.12
2016-06-19T12:26:31.270Z,57.51
2016-06-19T12:27:31.241Z,57.34
2016-06-19T12:28:31.260Z,57.12
2016-06-19T12:29:31.264Z,57.54
2016-06-19T12:30:31.284Z,57.44
2016-06-19T12:31:31.286Z,57.82
2016-06-19T12:32:31.305Z,57.15
2016-06-19T12:33:31.309Z,57.54
2016-06-19T12:34:31.328Z,57.34
2016-06-19T12:35:31.331Z,57.6
2016-06-19T12:36:31.350Z,57.41
2016-06-19T12:37:31.353Z,57.44
2016-06-19T12:38:31.374Z,57.34
2016-06-19T12:39:31.376Z,57.44
2016-06-19T12:40:31.380Z,57.15
2016-06-19T12:41:31.415Z,57.44
2016-06-19T12:42:31.418Z,57.41
2016-06-19T12:43:31.438Z,57.54
2016-06-19T12:44:31.441Z,57.34
2016-06-19T12:45:31.445Z,57.44
2016-06-19T12:46:31.463Z,57.41
2016-06-19T12:47:31.467Z,57.54
2016-06-19T12:48:31.471Z,57.34
2016-06-19T12:49:31.489Z,57.54
2016-06-19T12:50:31.508Z,57.73
2016-06-19T12:51:31.512Z,57.54
2016-06-19T12:52:31.530Z,57.44
2016-06-19T12:53:31.534Z,57.51